Авиационная погода в Тбилиси

Регион: 
Погода METAR: 
UGTB 241700Z 03010KT CAVOK 15/M01 Q1017 NOSIG
Время наблюдения
2021-10-24T17:00:00Z
Температура C
15.0
Точка росы
-1.0
Направление ветра
30
Скорость ветра (узлы)
10
Метео видимость
6.21
Явления погоды
Условия полета
VFR